Time;durP1;ratioP1;P1;durP2;ratioP2;P2;SDS_P1;SDS_P2;PMS_P1;PMS_P2;Temp;Humidity;BMP_temperature;BMP_pressure;BME280_temperature;BME280_humidity;BME280_pressure;Samples;Min_cycle;Max_cycle;Signal;HPM_P1;HPM_P2
2022/09/16 00:00:01;;;;;;;0.70;0.67;;;;;;;16.47;100.00;99708.22;5005133;28;20456;-55
2022/09/16 00:02:28;;;;;;;21.43;1.27;;;;;;;16.37;100.00;99701.69;5017682;28;21051;-55
2022/09/16 00:04:54;;;;;;;0.60;0.60;;;;;;;16.37;100.00;99701.69;5024296;28;20467;-55
2022/09/16 00:07:20;;;;;;;1.20;0.80;;;;;;;16.45;100.00;99704.78;5024333;28;20909;-55
2022/09/16 00:09:47;;;;;;;0.60;0.40;;;;;;;16.47;100.00;99708.22;5017084;28;20451;-56
2022/09/16 00:12:13;;;;;;;2.93;0.80;;;;;;;16.43;100.00;99703.97;5017341;28;20514;-55
2022/09/16 00:14:40;;;;;;;0.90;0.90;;;;;;;16.34;100.00;99701.88;5023871;28;20452;-55
2022/09/16 00:17:06;;;;;;;1.40;0.90;;;;;;;16.49;100.00;99693.75;5024696;28;20467;-55
2022/09/16 00:19:32;;;;;;;1.33;1.23;;;;;;;16.48;100.00;99688.47;5023883;28;20881;-55
2022/09/16 00:21:59;;;;;;;0.70;0.60;;;;;;;16.49;100.00;99690.19;5017958;28;20553;-55
2022/09/16 00:24:25;;;;;;;0.80;0.70;;;;;;;16.40;100.00;99694.31;5023633;28;20937;-55
2022/09/16 00:26:51;;;;;;;3.33;1.13;;;;;;;16.41;100.00;99692.47;5011270;28;20476;-55
2022/09/16 00:29:18;;;;;;;5.03;0.73;;;;;;;16.48;100.00;99691.16;5023556;28;20431;-55
2022/09/16 00:31:44;;;;;;;0.73;0.70;;;;;;;16.26;100.00;99680.88;5024157;28;20426;-56
2022/09/16 00:34:10;;;;;;;0.80;0.63;;;;;;;16.26;100.00;99679.06;5017765;28;20628;-55
2022/09/16 00:36:37;;;;;;;0.80;0.70;;;;;;;16.31;100.00;99681.47;5016813;28;20451;-55
2022/09/16 00:39:03;;;;;;;0.70;0.60;;;;;;;16.24;100.00;99680.97;5023456;28;20522;-55
2022/09/16 00:41:35;;;;;;;1.07;0.73;;;;;;;16.25;100.00;99687.22;5024117;28;20451;-55
2022/09/16 00:44:25;;;;;;;6.47;0.87;;;;;;;16.16;100.00;99685.06;5010931;28;20453;-55
2022/09/16 00:46:53;;;;;;;0.50;0.40;;;;;;;16.45;94.48;99686.00;5023344;28;20513;-56
2022/09/16 00:49:25;;;;;;;3.27;0.80;;;;;;;16.39;93.67;99689.91;5021813;28;20487;-55
2022/09/16 00:51:57;;;;;;;0.60;0.40;;;;;;;16.41;92.10;99690.66;5017065;28;21347;-56
2022/09/16 00:54:25;;;;;;;5.40;0.60;;;;;;;16.54;90.72;99686.25;5017237;28;21012;-55
2022/09/16 00:56:56;;;;;;;2.10;1.13;;;;;;;16.40;92.51;99685.41;5026306;28;20543;-56
2022/09/16 00:59:30;;;;;;;0.50;0.40;;;;;;;16.48;93.87;99683.97;5011296;28;20930;-55
2022/09/16 01:02:01;;;;;;;0.70;0.50;;;;;;;16.47;92.44;99690.28;5021322;28;20521;-56
2022/09/16 01:04:33;;;;;;;1.93;0.50;;;;;;;16.54;91.93;99691.63;5023727;28;20454;-55
2022/09/16 01:07:00;;;;;;;0.50;0.30;;;;;;;16.54;91.94;99688.94;5020019;28;20519;-55
2022/09/16 01:09:28;;;;;;;8.47;0.80;;;;;;;16.45;91.89;99680.63;5016605;28;20496;-55
2022/09/16 01:11:54;;;;;;;6.13;0.77;;;;;;;16.38;93.11;99681.94;5019628;28;20539;-55
2022/09/16 01:17:36;;;;;;;0.70;0.60;;;;;;;16.25;96.32;99680.03;5017557;28;21345;-55
2022/09/16 01:20:33;;;;;;;1.47;0.60;;;;;;;16.18;96.93;99688.56;5018727;28;20460;-55
2022/09/16 01:23:30;;;;;;;13.53;1.70;;;;;;;16.27;97.37;99683.47;5004956;28;21059;-55
2022/09/16 01:26:24;;;;;;;6.57;0.67;;;;;;;16.24;96.61;99688.16;5022966;28;20464;-55
2022/09/16 01:29:11;;;;;;;0.50;0.40;;;;;;;16.22;96.01;99684.72;5019910;28;20460;-55
2022/09/16 01:31:40;;;;;;;8.60;0.90;;;;;;;16.27;94.07;99685.28;4968888;28;20453;-55
2022/09/16 01:34:13;;;;;;;0.60;0.60;;;;;;;16.27;95.72;99691.50;5003220;28;20452;-55
2022/09/16 01:36:48;;;;;;;3.13;0.73;;;;;;;16.35;93.59;99693.75;4998518;28;21347;-55
2022/09/16 01:39:55;;;;;;;5.73;0.87;;;;;;;16.36;92.58;99684.72;5020690;28;20468;-55
2022/09/16 01:42:36;;;;;;;1.03;0.93;;;;;;;16.37;92.89;99677.53;4976150;28;20582;-55
2022/09/16 01:45:15;;;;;;;0.93;0.67;;;;;;;16.23;94.74;99684.63;5023084;28;20452;-55
2022/09/16 01:47:54;;;;;;;1.03;0.60;;;;;;;16.20;94.38;99687.50;5021294;28;20472;-56
2022/09/16 01:50:30;;;;;;;12.23;0.90;;;;;;;16.48;94.12;99681.28;5003816;28;20521;-55
2022/09/16 01:53:07;;;;;;;0.60;0.43;;;;;;;16.15;92.88;99692.25;5016530;28;20448;-55
2022/09/16 01:55:42;;;;;;;0.70;0.53;;;;;;;16.20;92.63;99694.69;5020076;28;20525;-56
2022/09/16 01:58:22;;;;;;;0.50;0.40;;;;;;;16.27;93.16;99694.19;5016733;28;21025;-55
2022/09/16 02:00:52;;;;;;;1.43;0.70;;;;;;;16.09;94.14;99689.09;5016478;28;20507;-55
2022/09/16 02:03:24;;;;;;;0.80;0.60;;;;;;;16.26;92.46;99687.09;5022432;28;20500;-55
2022/09/16 02:06:14;;;;;;;8.43;0.60;;;;;;;16.21;92.99;99680.31;5022625;28;20496;-55
2022/09/16 02:08:52;;;;;;;0.50;0.40;;;;;;;16.13;93.91;99690.63;5020671;28;20458;-55
2022/09/16 02:11:20;;;;;;;0.67;0.50;;;;;;;16.22;94.56;99690.09;5015900;28;20447;-55
2022/09/16 02:14:12;;;;;;;0.80;0.77;;;;;;;16.16;94.83;99691.31;5016208;28;20448;-55
2022/09/16 02:16:44;;;;;;;0.83;0.60;;;;;;;16.09;94.41;99694.47;5015723;28;20525;-55
2022/09/16 02:19:19;;;;;;;1.47;0.87;;;;;;;16.08;96.16;99693.59;5024877;28;20511;-55
2022/09/16 02:21:46;;;;;;;0.60;0.47;;;;;;;16.16;96.18;99693.13;5016047;28;20484;-55
2022/09/16 02:24:16;;;;;;;34.87;1.00;;;;;;;16.09;96.31;99689.97;5022151;28;20496;-55
2022/09/16 02:26:54;;;;;;;0.60;0.53;;;;;;;16.04;96.66;99684.03;5019225;28;20544;-55
2022/09/16 02:29:24;;;;;;;0.70;0.40;;;;;;;16.05;98.19;99685.75;5004627;28;20827;-55
2022/09/16 02:31:55;;;;;;;0.50;0.50;;;;;;;15.87;98.93;99687.72;5015779;28;20452;-55
2022/09/16 02:34:37;;;;;;;0.63;0.63;;;;;;;15.85;100.00;99689.63;5022651;28;20452;-54
2022/09/16 02:37:16;;;;;;;0.77;0.57;;;;;;;15.80;99.97;99685.50;5026209;28;20493;-55
2022/09/16 02:39:48;;;;;;;3.73;0.60;;;;;;;15.85;100.00;99688.75;5026241;28;20458;-55
2022/09/16 02:42:15;;;;;;;0.90;0.80;;;;;;;15.64;100.00;99689.09;5008010;28;20428;-55
2022/09/16 02:44:44;;;;;;;1.50;0.60;;;;;;;15.58;100.00;99696.59;5019589;28;20901;-55
2022/09/16 02:47:34;;;;;;;8.23;1.90;;;;;;;15.67;100.00;99699.63;5024803;28;20519;-55
2022/09/16 02:50:22;;;;;;;0.60;0.40;;;;;;;15.49;100.00;99708.72;5024467;28;20501;-55
2022/09/16 02:53:03;;;;;;;5.20;1.27;;;;;;;15.40;100.00;99702.06;5008336;28;20509;-55
2022/09/16 02:55:42;;;;;;;1.00;0.70;;;;;;;15.52;100.00;99700.50;5022839;28;20447;-55
2022/09/16 02:58:09;;;;;;;0.80;0.50;;;;;;;15.38;100.00;99701.31;5023536;28;20468;-55
2022/09/16 03:00:45;;;;;;;0.50;0.30;;;;;;;15.34;100.00;99705.09;5024016;28;20957;-55
2022/09/16 03:03:12;;;;;;;2.47;0.97;;;;;;;15.29;100.00;99695.59;5019177;28;20494;-55
2022/09/16 03:05:58;;;;;;;9.87;1.80;;;;;;;15.27;100.00;99692.16;5019244;28;20456;-55
2022/09/16 03:08:24;;;;;;;0.70;0.60;;;;;;;15.43;100.00;99697.47;5011499;28;20481;-55
2022/09/16 03:10:52;;;;;;;1.90;0.70;;;;;;;15.28;100.00;99691.19;5018876;28;20518;-54
2022/09/16 03:13:43;;;;;;;1.63;0.53;;;;;;;15.28;100.00;99700.09;5022803;28;20448;-55
2022/09/16 03:16:39;;;;;;;2.70;1.07;;;;;;;15.27;100.00;99694.84;5024675;28;20513;-55
2022/09/16 03:19:14;;;;;;;0.80;0.70;;;;;;;15.31;100.00;99685.66;5007096;28;20452;-55
2022/09/16 03:21:52;;;;;;;7.60;0.80;;;;;;;15.24;100.00;99689.66;5018562;28;20452;-54
2022/09/16 03:24:40;;;;;;;0.80;0.50;;;;;;;15.18;100.00;99682.81;5025647;28;21006;-54
2022/09/16 03:27:13;;;;;;;6.43;1.03;;;;;;;15.29;100.00;99682.22;5024975;28;20887;-55
2022/09/16 03:29:42;;;;;;;1.10;0.70;;;;;;;15.31;100.00;99670.47;5022455;28;20448;-55
2022/09/16 03:32:17;;;;;;;0.93;0.67;;;;;;;15.43;100.00;99668.88;5018614;28;20451;-54
2022/09/16 03:34:50;;;;;;;0.60;0.53;;;;;;;15.33;100.00;99665.88;5020488;28;20469;-56
2022/09/16 03:37:19;;;;;;;1.77;1.67;;;;;;;15.20;100.00;99670.22;5025253;28;20480;-55
2022/09/16 03:39:52;;;;;;;0.70;0.70;;;;;;;15.35;100.00;99671.13;5024725;28;20455;-55
2022/09/16 03:42:19;;;;;;;0.70;0.50;;;;;;;15.33;100.00;99673.91;5006344;28;20456;-54
2022/09/16 03:44:46;;;;;;;0.80;0.80;;;;;;;15.38;100.00;99674.53;5018404;28;20522;-54
2022/09/16 03:47:13;;;;;;;9.10;1.00;;;;;;;15.40;100.00;99677.09;5025028;28;20464;-55
2022/09/16 03:49:39;;;;;;;1.03;0.60;;;;;;;15.34;100.00;99675.63;5024905;28;20459;-55
2022/09/16 03:52:07;;;;;;;1.37;0.93;;;;;;;15.25;100.00;99675.31;5019723;28;20481;-55
2022/09/16 03:54:34;;;;;;;1.50;1.00;;;;;;;15.25;100.00;99678.00;5018209;28;20950;-55
2022/09/16 03:57:01;;;;;;;1.17;0.87;;;;;;;15.35;100.00;99676.50;5027736;28;20475;-54
2022/09/16 03:59:28;;;;;;;0.73;0.57;;;;;;;15.29;100.00;99684.88;5018242;28;20457;-54
2022/09/16 04:01:55;;;;;;;1.53;0.47;;;;;;;15.29;100.00;99671.50;5022869;28;20452;-54
2022/09/16 04:04:22;;;;;;;3.10;2.00;;;;;;;15.52;100.00;99675.53;5024606;28;20773;-55
2022/09/16 04:06:48;;;;;;;11.63;1.00;;;;;;;15.37;100.00;99670.13;5019870;28;20483;-55
2022/09/16 04:09:15;;;;;;;0.73;0.50;;;;;;;15.33;100.00;99663.19;5017594;28;20449;-55
2022/09/16 04:11:42;;;;;;;25.70;2.27;;;;;;;15.23;100.00;99662.03;5022292;28;20591;-54
2022/09/16 04:14:09;;;;;;;1.00;0.90;;;;;;;15.48;100.00;99657.88;5024760;28;20451;-54
2022/09/16 04:16:36;;;;;;;0.80;0.60;;;;;;;15.34;100.00;99662.22;5020447;28;20467;-54
2022/09/16 04:19:02;;;;;;;1.07;0.73;;;;;;;15.30;100.00;99659.84;5027956;28;21012;-54
2022/09/16 04:21:29;;;;;;;0.80;0.70;;;;;;;15.29;100.00;99664.31;5018152;28;20453;-55
2022/09/16 04:23:56;;;;;;;0.90;0.70;;;;;;;15.33;100.00;99663.19;5023956;28;20499;-55
2022/09/16 04:26:22;;;;;;;1.50;1.13;;;;;;;15.34;100.00;99667.59;5020398;28;20480;-54
2022/09/16 04:28:52;;;;;;;2.10;0.77;;;;;;;15.47;100.00;99664.19;5017430;28;20467;-55
2022/09/16 04:31:19;;;;;;;0.97;0.97;;;;;;;15.89;99.85;99658.13;5020850;28;20837;-55
2022/09/16 04:33:45;;;;;;;3.80;0.73;;;;;;;15.70;98.50;99659.25;5027663;28;20451;-55
2022/09/16 04:36:14;;;;;;;1.00;1.00;;;;;;;15.62;99.20;99664.22;5020508;28;21097;-55
2022/09/16 04:38:42;;;;;;;0.80;0.73;;;;;;;15.49;99.80;99659.59;5023787;28;21329;-55
2022/09/16 04:41:12;;;;;;;1.10;1.00;;;;;;;15.49;100.00;99655.16;5021505;28;20474;-55
2022/09/16 04:43:39;;;;;;;6.60;0.77;;;;;;;15.41;100.00;99665.44;5017290;28;20550;-55
2022/09/16 04:46:06;;;;;;;4.53;2.40;;;;;;;15.36;100.00;99662.19;5019070;28;20456;-54
2022/09/16 04:48:33;;;;;;;0.73;0.73;;;;;;;15.36;100.00;99655.00;5023809;28;20477;-55
2022/09/16 04:51:03;;;;;;;0.87;0.70;;;;;;;15.13;100.00;99662.63;5022493;28;20467;-55
2022/09/16 04:53:29;;;;;;;0.60;0.50;;;;;;;15.08;100.00;99660.22;5016909;28;20484;-54
2022/09/16 04:56:26;;;;;;;1.87;0.93;;;;;;;15.03;100.00;99670.31;5017689;28;20474;-54
2022/09/16 04:58:58;;;;;;;4.00;1.30;;;;;;;15.17;100.00;99665.03;5009391;28;20952;-54
2022/09/16 05:01:28;;;;;;;1.87;0.90;;;;;;;15.43;100.00;99660.84;5016683;28;20883;-55
2022/09/16 05:03:57;;;;;;;1.40;1.30;;;;;;;15.43;99.70;99659.97;5019300;28;20887;-55
2022/09/16 05:06:26;;;;;;;2.90;0.77;;;;;;;15.37;99.25;99666.56;5023112;28;21070;-54
2022/09/16 05:08:55;;;;;;;1.90;1.07;;;;;;;15.38;99.23;99668.31;5021707;28;20463;-55
2022/09/16 05:11:24;;;;;;;50.73;2.60;;;;;;;15.38;99.27;99671.84;5011736;28;20456;-55
2022/09/16 05:13:51;;;;;;;2.20;1.23;;;;;;;15.35;98.75;99673.81;5022799;28;20459;-54
2022/09/16 05:16:20;;;;;;;1.80;1.63;;;;;;;15.34;99.57;99670.28;5017273;28;20857;-54
2022/09/16 05:18:49;;;;;;;10.60;0.70;;;;;;;15.45;99.22;99663.44;5028934;28;20490;-55
2022/09/16 05:21:19;;;;;;;1.13;1.03;;;;;;;15.45;99.62;99664.28;5017061;28;20821;-55
2022/09/16 05:23:46;;;;;;;1.60;1.17;;;;;;;15.45;99.26;99666.97;5023422;28;20993;-55
2022/09/16 05:26:15;;;;;;;9.37;0.90;;;;;;;15.45;99.34;99666.97;5018228;28;20471;-54
2022/09/16 05:28:43;;;;;;;0.93;0.80;;;;;;;15.58;98.78;99656.41;5016112;28;20452;-55
2022/09/16 05:31:18;;;;;;;1.53;1.27;;;;;;;15.52;98.75;99665.69;5021056;28;20460;-54
2022/09/16 05:33:51;;;;;;;5.07;1.37;;;;;;;15.52;99.11;99676.38;5023002;28;20941;-55
2022/09/16 05:36:18;;;;;;;1.73;0.73;;;;;;;15.51;99.11;99672.00;5021146;28;20482;-55
2022/09/16 05:38:45;;;;;;;1.20;1.03;;;;;;;15.54;98.86;99682.50;5016083;28;20457;-55
2022/09/16 05:41:31;;;;;;;1.07;1.03;;;;;;;15.53;99.70;99669.22;5016293;28;20484;-55
2022/09/16 05:43:59;;;;;;;0.80;0.70;;;;;;;15.51;99.61;99677.34;5004681;28;20550;-55
2022/09/16 05:46:26;;;;;;;8.63;0.73;;;;;;;15.47;98.76;99683.81;5022689;28;20484;-54
2022/09/16 05:48:53;;;;;;;0.73;0.60;;;;;;;15.55;98.79;99681.56;5017694;28;20482;-55
2022/09/16 05:51:22;;;;;;;1.13;0.90;;;;;;;15.48;98.77;99677.50;5016027;28;20464;-54
2022/09/16 05:53:49;;;;;;;1.13;1.07;;;;;;;15.56;98.55;99679.75;5021098;28;20452;-55
2022/09/16 05:56:21;;;;;;;2.40;1.10;;;;;;;15.62;98.63;99679.41;5022880;28;20476;-55
2022/09/16 05:58:50;;;;;;;2.10;1.10;;;;;;;15.57;98.40;99684.16;5019771;28;20523;-55
2022/09/16 06:01:22;;;;;;;0.63;0.50;;;;;;;15.43;98.62;99684.94;5022624;28;20460;-55
2022/09/16 06:03:50;;;;;;;0.70;0.50;;;;;;;15.70;97.66;99682.50;5020116;28;20828;-55
2022/09/16 06:06:28;;;;;;;4.40;1.60;;;;;;;15.61;97.91;99675.84;5015653;28;20893;-55
2022/09/16 06:08:57;;;;;;;1.03;0.90;;;;;;;15.80;97.31;99672.09;5015569;28;20580;-55
2022/09/16 06:11:24;;;;;;;0.80;0.80;;;;;;;15.73;97.02;99674.28;5022430;28;20519;-55
2022/09/16 06:13:54;;;;;;;1.23;0.90;;;;;;;15.72;97.27;99675.22;5022219;28;20447;-55
2022/09/16 06:16:21;;;;;;;1.37;1.27;;;;;;;15.67;97.35;99680.00;5011021;28;20475;-55
2022/09/16 06:18:48;;;;;;;0.80;0.70;;;;;;;15.86;96.38;99687.81;5015450;28;20889;-55
2022/09/16 06:21:14;;;;;;;2.10;0.70;;;;;;;15.92;96.71;99682.09;5021646;28;20980;-55
2022/09/16 06:23:41;;;;;;;1.00;0.83;;;;;;;15.80;96.80;99682.81;5009511;28;21003;-55
2022/09/16 06:26:11;;;;;;;0.83;0.60;;;;;;;15.95;96.23;99680.09;5021628;28;20489;-55
2022/09/16 06:28:37;;;;;;;0.60;0.47;;;;;;;16.13;95.81;99667.38;5013959;28;21008;-55
2022/09/16 06:31:20;;;;;;;1.03;0.93;;;;;;;16.22;94.92;99666.81;5020671;28;20453;-55
2022/09/16 06:33:49;;;;;;;9.03;0.90;;;;;;;16.14;94.74;99668.22;5022212;28;20448;-55
2022/09/16 06:36:21;;;;;;;0.50;0.33;;;;;;;16.26;94.32;99668.34;5019780;28;20476;-55
2022/09/16 06:38:48;;;;;;;0.77;0.60;;;;;;;16.45;93.46;99668.06;5015504;28;20870;-56
2022/09/16 06:41:16;;;;;;;0.60;0.50;;;;;;;16.27;93.68;99667.38;5017180;28;20452;-56
2022/09/16 06:43:43;;;;;;;2.50;0.80;;;;;;;16.28;93.27;99662.88;5021797;28;20496;-56
2022/09/16 06:46:15;;;;;;;3.97;0.80;;;;;;;16.33;92.95;99663.47;5021207;28;20509;-55
2022/09/16 06:48:44;;;;;;;8.10;1.20;;;;;;;16.43;93.09;99666.41;5015307;28;20447;-56
2022/09/16 06:51:16;;;;;;;0.60;0.43;;;;;;;16.49;93.57;99666.06;5015315;28;20864;-55
2022/09/16 06:53:43;;;;;;;0.80;0.50;;;;;;;16.47;93.04;99671.50;4996594;28;20937;-55
2022/09/16 06:56:12;;;;;;;2.33;2.10;;;;;;;16.72;92.20;99670.88;5022274;28;20451;-55
2022/09/16 06:58:41;;;;;;;2.00;0.90;;;;;;;16.78;91.33;99674.97;5019791;28;20510;-56
2022/09/16 07:01:10;;;;;;;2.80;0.50;;;;;;;16.83;90.99;99675.53;5022080;28;20883;-56
2022/09/16 07:03:42;;;;;;;0.80;0.70;;;;;;;16.81;91.50;99670.25;5017131;28;20606;-55
2022/09/16 07:06:10;;;;;;;2.43;0.67;;;;;;;16.72;90.78;99673.53;5015089;28;20448;-56
2022/09/16 07:08:37;;;;;;;1.53;0.93;;;;;;;16.53;91.43;99680.97;5019027;28;20423;-55
2022/09/16 07:11:11;;;;;;;1.20;1.00;;;;;;;16.39;91.81;99679.16;5022104;28;20461;-55
2022/09/16 07:13:38;;;;;;;3.23;0.80;;;;;;;16.40;91.11;99677.34;5019576;28;20447;-55
2022/09/16 07:16:06;;;;;;;6.13;1.00;;;;;;;16.24;91.26;99680.13;5011295;28;20460;-55
2022/09/16 07:18:41;;;;;;;2.63;1.90;;;;;;;16.67;90.51;99678.31;5009252;28;20422;-55
2022/09/16 07:21:17;;;;;;;0.60;0.57;;;;;;;16.81;89.91;99672.94;5025728;28;20523;-55
2022/09/16 07:23:45;;;;;;;0.73;0.40;;;;;;;16.56;89.56;99672.72;5020338;28;20502;-56
2022/09/16 07:26:15;;;;;;;3.23;0.77;;;;;;;16.59;88.68;99678.78;5020335;28;20475;-55
2022/09/16 07:28:42;;;;;;;0.80;0.40;;;;;;;16.77;88.05;99681.28;5018766;28;20957;-56
2022/09/16 07:31:11;;;;;;;1.00;0.53;;;;;;;16.99;87.23;99691.50;5023560;28;20448;-55
2022/09/16 07:33:40;;;;;;;0.60;0.40;;;;;;;17.00;86.81;99680.69;5024971;28;20834;-55
2022/09/16 07:36:09;;;;;;;2.93;0.40;;;;;;;16.83;87.82;99683.56;5021782;28;20459;-56
2022/09/16 07:38:36;;;;;;;1.13;0.70;;;;;;;16.72;87.19;99689.66;5018734;28;20456;-56
2022/09/16 07:41:08;;;;;;;5.00;0.97;;;;;;;16.74;86.12;99687.72;5022207;28;20993;-56
2022/09/16 07:43:34;;;;;;;1.67;0.70;;;;;;;16.79;85.84;99692.78;5025584;28;20526;-55
2022/09/16 07:46:01;;;;;;;0.97;0.60;;;;;;;16.93;85.80;99686.53;5022691;28;20554;-55
2022/09/16 07:48:29;;;;;;;4.20;0.80;;;;;;;16.90;85.37;99689.44;5018334;28;20455;-55
2022/09/16 07:51:21;;;;;;;1.00;0.60;;;;;;;17.20;85.15;99692.81;5019958;28;20463;-55
2022/09/16 07:53:53;;;;;;;0.83;0.50;;;;;;;17.01;84.51;99694.97;5023379;28;20546;-55
2022/09/16 07:56:24;;;;;;;6.53;0.60;;;;;;;17.18;83.52;99692.03;5007303;28;20502;-56
2022/09/16 07:58:52;;;;;;;0.80;0.50;;;;;;;17.52;82.22;99697.88;4994558;28;20585;-55
2022/09/16 08:01:19;;;;;;;15.00;0.60;;;;;;;17.45;80.25;99689.38;5021831;28;20453;-55
2022/09/16 08:03:46;;;;;;;6.57;0.40;;;;;;;17.79;80.45;99695.19;5011832;28;20456;-55
2022/09/16 08:06:16;;;;;;;0.90;0.80;;;;;;;17.91;77.77;99689.84;5014611;28;20479;-55
2022/09/16 08:08:43;;;;;;;4.00;0.70;;;;;;;17.91;77.72;99700.59;5021648;28;20833;-56
2022/09/16 08:11:11;;;;;;;3.03;0.50;;;;;;;17.51;75.38;99698.84;5024452;28;20457;-57
2022/09/16 08:13:38;;;;;;;0.57;0.40;;;;;;;17.41;75.61;99690.53;5022301;28;20466;-56
2022/09/16 08:16:11;;;;;;;0.80;0.70;;;;;;;17.76;74.87;99701.63;5018516;28;20454;-56
2022/09/16 08:18:38;;;;;;;0.57;0.53;;;;;;;17.89;73.95;99693.59;5031240;28;20487;-57
2022/09/16 08:21:14;;;;;;;0.60;0.40;;;;;;;17.68;73.75;99707.53;5017844;28;20456;-56
2022/09/16 08:23:41;;;;;;;0.50;0.30;;;;;;;17.71;74.61;99711.84;5018867;28;20455;-56
2022/09/16 08:26:10;;;;;;;14.63;1.67;;;;;;;18.25;71.85;99717.97;5018924;28;20923;-56
2022/09/16 08:28:38;;;;;;;0.40;0.30;;;;;;;18.28;72.61;99709.69;5017494;28;20453;-56
2022/09/16 08:31:23;;;;;;;17.53;0.47;;;;;;;18.00;72.96;99704.50;5018915;28;20452;-56
2022/09/16 08:33:49;;;;;;;3.30;0.50;;;;;;;17.98;69.99;99709.13;5024144;28;20509;-56
2022/09/16 08:36:19;;;;;;;0.50;0.30;;;;;;;18.58;69.79;99709.34;5021910;28;20534;-56
2022/09/16 08:38:47;;;;;;;4.23;0.70;;;;;;;18.47;68.71;99705.69;5017607;28;20455;-56
2022/09/16 08:41:49;;;;;;;1.93;0.50;;;;;;;18.90;68.87;99717.84;5018550;28;21027;-57
2022/09/16 08:44:40;;;;;;;0.63;0.60;;;;;;;18.40;69.42;99716.03;5003306;28;20503;-56
2022/09/16 08:47:31;;;;;;;0.80;0.40;;;;;;;18.59;68.53;99707.53;5005735;28;20521;-56
2022/09/16 08:50:00;;;;;;;0.50;0.30;;;;;;;18.54;68.90;99709.69;5017225;28;20490;-56
2022/09/16 08:52:30;;;;;;;0.50;0.40;;;;;;;18.44;68.54;99709.47;5019361;28;20961;-57
2022/09/16 08:55:30;;;;;;;0.80;0.53;;;;;;;18.46;68.09;99706.66;5006196;28;20526;-56
2022/09/16 08:58:14;;;;;;;4.00;0.43;;;;;;;18.42;69.31;99710.56;5023702;28;20508;-56
2022/09/16 09:00:43;;;;;;;0.60;0.40;;;;;;;18.46;68.13;99710.22;5022516;28;20506;-55
2022/09/16 09:03:39;;;;;;;0.80;0.40;;;;;;;18.70;66.81;99698.72;5016838;28;20490;-56
2022/09/16 09:06:25;;;;;;;0.70;0.70;;;;;;;18.87;65.82;99707.28;5016451;28;20495;-56
2022/09/16 09:09:21;;;;;;;0.70;0.40;;;;;;;19.45;65.03;99702.16;5017522;28;20481;-56
2022/09/16 09:11:58;;;;;;;0.50;0.30;;;;;;;19.40;67.45;99698.94;5005966;28;20455;-56
2022/09/16 09:14:37;;;;;;;0.57;0.33;;;;;;;19.65;66.45;99701.56;5016521;28;20447;-55
2022/09/16 09:17:30;;;;;;;0.57;0.40;;;;;;;19.23;67.80;99697.50;5016769;28;20453;-56
2022/09/16 09:20:31;;;;;;;1.10;0.40;;;;;;;19.28;66.76;99702.56;5010164;28;20450;-56
2022/09/16 09:23:12;;;;;;;12.13;0.73;;;;;;;19.24;66.30;99700.09;5004992;28;20522;-56
2022/09/16 09:25:43;;;;;;;0.40;0.30;;;;;;;18.87;67.77;99701.06;5023011;28;20492;-56
2022/09/16 09:28:47;;;;;;;1.00;0.40;;;;;;;19.27;65.43;99699.00;5013509;28;20473;-56
2022/09/16 09:31:13;;;;;;;12.47;0.70;;;;;;;19.54;64.33;99693.38;5008467;28;20430;-56
2022/09/16 09:33:54;;;;;;;5.10;0.90;;;;;;;19.49;64.68;99700.97;5016338;28;20480;-56
2022/09/16 09:36:44;;;;;;;8.17;0.50;;;;;;;19.94;64.73;99699.34;5018739;28;20472;-56
2022/09/16 09:39:46;;;;;;;5.90;0.63;;;;;;;19.68;64.69;99695.94;4987688;28;20916;-56
2022/09/16 09:42:23;;;;;;;0.50;0.40;;;;;;;19.56;65.01;99698.69;5016156;28;20505;-56
2022/09/16 09:44:57;;;;;;;0.50;0.30;;;;;;;19.86;61.32;99684.72;5015854;28;20492;-56
2022/09/16 09:47:35;;;;;;;1.10;0.50;;;;;;;19.64;63.03;99685.50;5020257;28;20479;-56
2022/09/16 09:50:22;;;;;;;2.10;0.60;;;;;;;19.69;63.51;99681.47;5022707;28;20522;-57
2022/09/16 09:52:54;;;;;;;0.50;0.40;;;;;;;19.75;65.08;99680.16;5022775;28;20455;-57
2022/09/16 09:55:24;;;;;;;0.50;0.40;;;;;;;19.16;65.36;99678.22;5004397;28;20455;-56
2022/09/16 09:58:00;;;;;;;1.03;0.60;;;;;;;19.12;65.08;99682.13;5025393;28;20578;-56
2022/09/16 10:00:27;;;;;;;1.47;0.43;;;;;;;18.97;64.72;99672.47;5018603;28;20455;-56
2022/09/16 10:03:03;;;;;;;4.00;0.57;;;;;;;18.88;66.03;99683.91;5015549;28;20510;-55
2022/09/16 10:05:30;;;;;;;0.40;0.30;;;;;;;18.81;66.19;99682.66;5019165;28;20496;-56
2022/09/16 10:08:19;;;;;;;6.73;0.70;;;;;;;19.13;64.76;99680.28;5021988;28;20463;-56
2022/09/16 10:10:50;;;;;;;0.40;0.30;;;;;;;19.20;65.93;99674.34;5015710;28;20438;-56
2022/09/16 10:13:16;;;;;;;4.33;0.63;;;;;;;19.11;64.96;99683.09;5017049;28;20935;-56
2022/09/16 10:15:43;;;;;;;1.40;0.77;;;;;;;19.19;67.06;99686.09;5016788;28;20453;-56
2022/09/16 10:18:23;;;;;;;3.40;0.50;;;;;;;18.77;74.55;99689.22;5028548;28;20955;-56
2022/09/16 10:21:16;;;;;;;4.13;0.70;;;;;;;18.58;71.92;99687.81;5015658;28;20451;-56
2022/09/16 10:23:54;;;;;;;0.77;0.30;;;;;;;18.25;71.61;99692.91;5013430;28;20875;-56
2022/09/16 10:26:26;;;;;;;0.70;0.40;;;;;;;18.41;70.90;99682.78;5018017;28;20892;-57
2022/09/16 10:29:14;;;;;;;0.63;0.40;;;;;;;18.30;70.86;99675.44;5015488;28;20510;-57
2022/09/16 10:31:41;;;;;;;0.50;0.30;;;;;;;18.23;70.60;99676.88;5016381;28;20482;-57
2022/09/16 10:34:18;;;;;;;1.90;0.60;;;;;;;18.24;69.32;99681.28;5022560;28;20510;-56
2022/09/16 10:36:45;;;;;;;5.00;0.40;;;;;;;18.33;69.38;99682.44;5022401;28;20467;-56
2022/09/16 10:39:23;;;;;;;0.50;0.30;;;;;;;18.44;67.97;99679.88;5016718;28;20451;-56
2022/09/16 10:41:50;;;;;;;0.50;0.40;;;;;;;18.74;67.20;99684.91;5015900;28;20429;-56
2022/09/16 10:44:20;;;;;;;3.90;0.43;;;;;;;18.97;67.22;99679.69;5018622;28;20822;-56
2022/09/16 10:46:53;;;;;;;6.33;0.50;;;;;;;19.15;65.26;99675.66;5022284;28;20468;-56
2022/09/16 10:49:52;;;;;;;0.50;0.40;;;;;;;18.87;66.63;99674.13;5020557;28;20426;-56
2022/09/16 10:52:23;;;;;;;0.60;0.30;;;;;;;18.91;67.24;99672.91;4992901;28;20464;-56
2022/09/16 10:54:49;;;;;;;0.50;0.30;;;;;;;19.08;65.46;99677.94;5017508;28;20470;-56
2022/09/16 10:57:29;;;;;;;1.00;0.60;;;;;;;19.21;66.50;99678.78;5029538;28;20988;-57
2022/09/16 10:59:59;;;;;;;0.50;0.30;;;;;;;18.78;66.68;99685.56;5018970;28;20429;-56
2022/09/16 11:02:39;;;;;;;3.40;0.53;;;;;;;19.01;67.76;99690.13;5020270;28;20463;-56
2022/09/16 11:05:17;;;;;;;0.40;0.30;;;;;;;18.75;67.67;99693.84;5008009;28;20483;-56
2022/09/16 11:08:14;;;;;;;0.70;0.30;;;;;;;18.79;70.88;99703.44;5018722;28;21089;-56
2022/09/16 11:11:06;;;;;;;1.07;0.40;;;;;;;18.90;76.08;99706.22;5018815;28;20876;-57
2022/09/16 11:13:49;;;;;;;0.50;0.30;;;;;;;18.61;78.46;99702.88;5021239;28;20923;-56
2022/09/16 11:16:28;;;;;;;3.40;0.60;;;;;;;18.23;81.57;99702.91;5024327;28;20501;-56
2022/09/16 11:18:59;;;;;;;0.50;0.30;;;;;;;18.42;82.52;99689.88;5030831;28;20452;-56
2022/09/16 11:21:41;;;;;;;1.27;1.00;;;;;;;18.22;85.84;99696.63;5019635;28;20516;-56
2022/09/16 11:24:37;;;;;;;0.87;0.50;;;;;;;18.54;85.39;99697.09;5025093;28;21021;-56
2022/09/16 11:27:20;;;;;;;1.40;0.40;;;;;;;17.98;82.55;99677.69;5025103;28;20454;-56
2022/09/16 11:30:10;;;;;;;1.10;0.60;;;;;;;18.01;81.68;99679.31;5023180;28;20452;-56
2022/09/16 11:33:02;;;;;;;0.80;0.47;;;;;;;18.38;83.17;99679.44;5007560;28;20899;-56
2022/09/16 11:35:47;;;;;;;0.50;0.40;;;;;;;18.96;80.64;99684.22;5018340;28;20454;-56
2022/09/16 11:38:38;;;;;;;0.50;0.30;;;;;;;18.60;77.14;99683.19;5018269;28;20479;-58
2022/09/16 11:41:22;;;;;;;1.03;0.47;;;;;;;19.18;74.88;99684.34;5021222;28;20448;-56
2022/09/16 11:44:00;;;;;;;0.50;0.30;;;;;;;19.47;70.52;99679.53;5024961;28;20502;-56
2022/09/16 11:47:00;;;;;;;2.03;0.60;;;;;;;19.42;68.41;99676.28;5025549;28;20545;-56
2022/09/16 11:49:40;;;;;;;0.60;0.50;;;;;;;19.24;66.74;99672.28;5023999;28;20426;-56
2022/09/16 11:52:43;;;;;;;0.47;0.30;;;;;;;19.43;69.22;99675.31;5006626;28;20455;-56
2022/09/16 11:55:34;;;;;;;0.90;0.40;;;;;;;19.43;69.76;99682.53;5018253;28;20991;-56
2022/09/16 11:58:18;;;;;;;0.63;0.30;;;;;;;18.94;72.45;99686.19;5025409;28;20451;-56
2022/09/16 12:00:47;;;;;;;0.50;0.30;;;;;;;18.77;74.70;99681.13;5023805;28;20513;-55
2022/09/16 12:03:29;;;;;;;0.60;0.40;;;;;;;18.62;77.62;99689.31;5017708;28;20952;-56
2022/09/16 12:06:06;;;;;;;1.60;0.63;;;;;;;18.81;76.72;99686.22;5016589;28;20914;-57